Minneapolis, Minnesota
Traffic Map
Current Weather Conditions
Minneapolis, Minnesota
Overcast Moderate Rain
Overcast
10°
Feels Like: 10°
Wind Chill: 10° Ceiling: 1000
Heat Index: 10° Visibility: 4mi
Dew Point: Wind: 10mph
Humidity: 93% Direction: 130° (SE)
Pressure: 29.82in Gusts: 0mph
Raw Report DataKMSP 011617Z 13009KT 4SM R30L/4500VP6000FT RA BR BKN010 BKN021 OVC034 10/09 A2982 RMK AO2 BKN010 V SCT P0005 T01000089
Traffic Incident Summary
Active as of:
Severity:
Category:
InformationThere was an issue retrieving the traffic information for this location. Please try a different location or try again shortly.
Advertisements
Track Severe Weather on mobile